Time;durP1;ratioP1;P1;durP2;ratioP2;P2;SDS_P1;SDS_P2;PMS_P1;PMS_P2;Temp;Humidity;BMP_temperature;BMP_pressure;BME280_temperature;BME280_humidity;BME280_pressure;Samples;Min_cycle;Max_cycle;Signal;HPM_P1;HPM_P2
2022/07/07 00:00:40;;;;;;;10.90;7.43;;;;;;;17.46;73.86;101962.44;5069866;28;20040;-72
2022/07/07 00:03:06;;;;;;;13.43;7.72;;;;;;;17.46;73.88;101961.56;5081307;28;20039;-72
2022/07/07 00:05:31;;;;;;;12.88;6.90;;;;;;;17.46;73.74;101954.19;5089285;28;20472;-72
2022/07/07 00:07:57;;;;;;;14.10;7.00;;;;;;;17.46;74.18;101958.81;5090396;28;20371;-74
2022/07/07 00:10:22;;;;;;;10.48;7.18;;;;;;;17.46;74.38;101953.31;5074428;28;20064;-71
2022/07/07 00:12:48;;;;;;;10.77;6.80;;;;;;;17.43;74.76;101950.81;5069274;28;20044;-73
2022/07/07 00:15:14;;;;;;;11.52;7.75;;;;;;;17.41;73.96;101950.94;5069099;28;20387;-72
2022/07/07 00:17:40;;;;;;;11.93;6.95;;;;;;;17.42;74.40;101949.94;5068667;28;20040;-73
2022/07/07 00:20:06;;;;;;;12.23;6.97;;;;;;;17.41;74.85;101948.19;5069417;28;20040;-73
2022/07/07 00:22:31;;;;;;;10.95;6.53;;;;;;;17.42;73.09;101941.69;5085538;28;20035;-72
2022/07/07 00:24:57;;;;;;;13.25;7.30;;;;;;;17.42;73.85;101943.56;5069249;28;20040;-73
2022/07/07 00:27:22;;;;;;;9.25;6.50;;;;;;;17.40;74.27;101932.72;5069799;28;20137;-73
2022/07/07 00:29:48;;;;;;;9.23;6.07;;;;;;;17.43;73.92;101934.31;5068215;28;20044;-73
2022/07/07 00:32:14;;;;;;;9.27;6.82;;;;;;;17.42;74.77;101927.94;5081955;28;20506;-72
2022/07/07 00:34:39;;;;;;;10.40;6.30;;;;;;;17.41;73.37;101914.31;5089958;28;20046;-73
2022/07/07 00:37:04;;;;;;;10.70;6.15;;;;;;;17.39;74.02;101911.69;5088236;28;20127;-73
2022/07/07 00:39:30;;;;;;;15.32;6.43;;;;;;;17.39;74.46;101908.06;5077693;28;20051;-72
2022/07/07 00:41:55;;;;;;;13.57;6.50;;;;;;;17.37;75.17;101910.94;5069462;28;20032;-72
2022/07/07 00:44:22;;;;;;;7.85;5.90;;;;;;;17.37;74.92;101913.69;5071641;28;20097;-73
2022/07/07 00:46:50;;;;;;;9.75;5.68;;;;;;;17.38;74.06;101903.56;5068969;28;20059;-73
2022/07/07 00:49:18;;;;;;;9.82;5.47;;;;;;;17.37;74.73;101902.69;5069484;28;20040;-72
2022/07/07 00:51:44;;;;;;;12.48;6.20;;;;;;;17.38;74.70;101904.44;5069196;28;20372;-72
2022/07/07 00:54:10;;;;;;;8.07;5.75;;;;;;;17.39;74.33;101906.16;5082915;28;20028;-72
2022/07/07 00:56:36;;;;;;;8.05;5.55;;;;;;;17.38;74.99;101898.94;5069356;28;20472;-72
2022/07/07 00:59:06;;;;;;;10.18;6.00;;;;;;;17.37;74.89;101897.19;5068252;28;20430;-72
2022/07/07 01:01:34;;;;;;;7.82;5.38;;;;;;;17.36;75.04;101889.94;5068891;28;20491;-72
2022/07/07 01:04:00;;;;;;;10.57;5.10;;;;;;;17.35;75.04;101896.47;5086697;28;20067;-71
2022/07/07 01:06:26;;;;;;;8.27;5.43;;;;;;;17.37;74.85;101894.44;5081088;28;20106;-74
2022/07/07 01:08:53;;;;;;;7.53;5.68;;;;;;;17.39;74.70;101899.78;5066634;28;20036;-73
2022/07/07 01:11:18;;;;;;;8.38;4.72;;;;;;;17.39;74.72;101900.66;5069062;28;20072;-73
2022/07/07 01:13:44;;;;;;;10.25;5.13;;;;;;;17.41;74.75;101901.44;5078105;28;20079;-73
2022/07/07 01:16:09;;;;;;;8.13;5.20;;;;;;;17.42;74.55;101899.56;5068301;28;20558;-73
2022/07/07 01:18:35;;;;;;;10.18;5.60;;;;;;;17.41;74.34;101897.81;5069008;28;20044;-72
2022/07/07 01:21:03;;;;;;;7.40;5.53;;;;;;;17.41;74.65;101898.69;5068685;28;20058;-73
2022/07/07 01:23:28;;;;;;;8.65;5.00;;;;;;;17.43;74.00;101893.91;5068571;28;20432;-73
2022/07/07 01:25:53;;;;;;;10.40;5.75;;;;;;;17.43;75.13;101895.78;5068477;28;20181;-75
2022/07/07 01:28:19;;;;;;;7.60;5.25;;;;;;;17.41;75.33;101895.94;5067848;28;20471;-73
2022/07/07 01:30:44;;;;;;;11.23;5.45;;;;;;;17.40;74.19;101893.31;5068307;28;20032;-73
2022/07/07 01:33:10;;;;;;;8.48;4.85;;;;;;;17.42;75.37;101885.78;5080344;28;20402;-73
2022/07/07 01:35:35;;;;;;;9.75;5.07;;;;;;;17.40;75.56;101880.44;5087759;28;20039;-72
2022/07/07 01:38:01;;;;;;;7.45;5.15;;;;;;;17.38;75.20;101885.19;5083767;28;20033;-72
2022/07/07 01:40:26;;;;;;;6.72;4.72;;;;;;;17.39;75.78;101878.66;5068532;28;20036;-73
2022/07/07 01:42:51;;;;;;;8.05;5.03;;;;;;;17.39;75.41;101870.41;5083295;28;20123;-73
2022/07/07 01:45:17;;;;;;;7.03;4.90;;;;;;;17.41;75.58;101868.41;5067860;28;20027;-72
2022/07/07 01:47:42;;;;;;;8.75;4.95;;;;;;;17.42;73.83;101867.41;5069087;28;20112;-73
2022/07/07 01:50:08;;;;;;;7.75;4.68;;;;;;;17.42;74.05;101870.16;5068432;28;20094;-72
2022/07/07 01:52:35;;;;;;;9.20;4.75;;;;;;;17.42;75.07;101861.03;5069265;28;20375;-68
2022/07/07 01:55:00;;;;;;;8.90;5.32;;;;;;;17.41;75.78;101862.03;5068122;28;20037;-73
2022/07/07 01:57:26;;;;;;;10.88;4.68;;;;;;;17.42;74.85;101863.78;5067084;28;20112;-74
2022/07/07 01:59:51;;;;;;;10.07;5.15;;;;;;;17.43;75.38;101865.53;5066598;28;20032;-72
2022/07/07 02:02:16;;;;;;;8.27;4.68;;;;;;;17.45;75.03;101869.03;5076189;28;20028;-73
2022/07/07 02:04:42;;;;;;;7.00;4.80;;;;;;;17.44;75.92;101865.41;5109785;28;20039;-73
2022/07/07 02:07:07;;;;;;;7.75;4.45;;;;;;;17.45;76.36;101871.78;5087139;28;20104;-72
2022/07/07 02:09:33;;;;;;;11.98;4.47;;;;;;;17.44;75.58;101859.91;5080519;28;20043;-72
2022/07/07 02:11:58;;;;;;;8.68;4.85;;;;;;;17.44;75.53;101861.75;5071132;28;20040;-72
2022/07/07 02:14:24;;;;;;;7.35;4.50;;;;;;;17.46;76.48;101860.66;5070981;28;20070;-74
2022/07/07 02:16:49;;;;;;;10.48;4.68;;;;;;;17.46;75.85;101854.28;5071358;28;20115;-72
2022/07/07 02:19:15;;;;;;;8.80;4.30;;;;;;;17.44;77.54;101857.16;5072083;28;20048;-73
2022/07/07 02:21:40;;;;;;;9.88;5.07;;;;;;;17.44;77.10;101848.00;5071529;28;20101;-73
2022/07/07 02:24:06;;;;;;;7.60;3.90;;;;;;;17.42;77.07;101847.28;5086362;28;20025;-71
2022/07/07 02:26:33;;;;;;;8.07;3.58;;;;;;;17.44;76.63;101851.66;5070993;28;20047;-72
2022/07/07 02:28:59;;;;;;;7.43;3.97;;;;;;;17.45;77.04;101850.66;5070793;28;20479;-72
2022/07/07 02:31:25;;;;;;;7.07;3.65;;;;;;;17.46;76.73;101852.38;5069634;28;20507;-72
2022/07/07 02:33:50;;;;;;;6.43;3.88;;;;;;;17.43;78.13;101849.88;5089005;28;20032;-73
2022/07/07 02:36:19;;;;;;;5.43;3.85;;;;;;;17.44;77.48;101850.75;5092040;28;20336;-73
2022/07/07 02:38:45;;;;;;;4.88;3.42;;;;;;;17.43;76.86;101846.28;5090734;28;20051;-72
2022/07/07 02:41:11;;;;;;;6.47;3.17;;;;;;;17.45;77.56;101844.28;5071669;28;20368;-74
2022/07/07 02:43:37;;;;;;;9.30;3.45;;;;;;;17.44;76.66;101842.50;5069111;28;20036;-72
2022/07/07 02:46:03;;;;;;;7.15;2.95;;;;;;;17.45;76.46;101847.03;5069899;28;20064;-71
2022/07/07 02:48:29;;;;;;;8.27;3.60;;;;;;;17.46;76.79;101846.03;5071955;28;20487;-72
2022/07/07 02:50:54;;;;;;;8.57;3.78;;;;;;;17.46;76.58;101849.63;5072789;28;20029;-70
2022/07/07 02:53:21;;;;;;;7.90;2.90;;;;;;;17.48;76.50;101836.59;5090217;28;20182;-73
2022/07/07 02:55:47;;;;;;;8.90;3.38;;;;;;;17.49;77.13;101848.50;5071964;28;20037;-72
2022/07/07 02:58:15;;;;;;;5.93;2.80;;;;;;;17.48;75.99;101852.25;5070553;28;20399;-74
2022/07/07 03:00:41;;;;;;;3.53;2.70;;;;;;;17.51;76.44;101858.38;5070987;28;20701;-73
2022/07/07 03:03:10;;;;;;;5.18;2.38;;;;;;;17.50;76.41;101855.75;5082439;28;20067;-70
2022/07/07 03:05:36;;;;;;;5.43;2.83;;;;;;;17.45;77.08;101864.41;5091511;28;20456;-70
2022/07/07 03:08:01;;;;;;;3.45;2.38;;;;;;;17.38;76.33;101862.28;5092020;28;20039;-71
2022/07/07 03:10:27;;;;;;;6.43;2.20;;;;;;;17.31;76.18;101862.81;5074984;28;20029;-70
2022/07/07 03:12:53;;;;;;;4.63;1.95;;;;;;;17.23;76.34;101872.72;5070349;28;20028;-70
2022/07/07 03:15:19;;;;;;;4.43;2.05;;;;;;;17.17;76.70;101873.25;5082885;28;20028;-71
2022/07/07 03:17:46;;;;;;;2.20;1.83;;;;;;;17.09;77.63;101872.00;5071179;28;20189;-71
2022/07/07 03:20:13;;;;;;;7.65;2.10;;;;;;;17.07;76.20;101870.41;5070584;28;20119;-70
2022/07/07 03:22:39;;;;;;;2.95;1.85;;;;;;;17.04;77.18;101873.41;5071086;28;20044;-72
2022/07/07 03:25:06;;;;;;;5.57;1.83;;;;;;;16.99;77.96;101870.16;5070249;28;20021;-71
2022/07/07 03:27:32;;;;;;;3.85;2.40;;;;;;;16.92;78.66;101867.03;5071283;28;20043;-71
2022/07/07 03:29:57;;;;;;;5.57;2.40;;;;;;;16.87;78.86;101874.78;5068966;28;20040;-71
2022/07/07 03:32:24;;;;;;;3.67;2.05;;;;;;;16.81;79.77;101872.56;5084471;28;20368;-69
2022/07/07 03:34:49;;;;;;;3.28;2.03;;;;;;;16.77;79.21;101873.81;5090943;28;20127;-70
2022/07/07 03:37:15;;;;;;;4.95;2.33;;;;;;;16.74;80.66;101877.69;5091072;28;20432;-71
2022/07/07 03:39:40;;;;;;;2.50;1.98;;;;;;;16.70;80.05;101873.41;5074737;28;20036;-70
2022/07/07 03:42:06;;;;;;;5.35;2.25;;;;;;;16.67;80.41;101870.91;5070725;28;20119;-70
2022/07/07 03:44:31;;;;;;;3.38;2.20;;;;;;;16.63;81.35;101866.66;5069473;28;20490;-71
2022/07/07 03:46:56;;;;;;;4.72;2.67;;;;;;;16.59;81.60;101873.41;5070028;28;20375;-70
2022/07/07 03:49:22;;;;;;;2.97;2.70;;;;;;;16.54;81.26;101870.16;5070634;28;20363;-71
2022/07/07 03:51:47;;;;;;;2.80;2.50;;;;;;;16.49;81.84;101872.41;5068363;28;20028;-71
2022/07/07 03:54:12;;;;;;;3.47;2.40;;;;;;;16.44;82.01;101867.28;5068277;28;20029;-71
2022/07/07 03:56:39;;;;;;;3.97;2.35;;;;;;;16.45;81.53;101871.75;5070336;28;20047;-70
2022/07/07 03:59:04;;;;;;;2.95;2.28;;;;;;;16.43;82.01;101868.28;5069429;28;20502;-70
2022/07/07 04:01:30;;;;;;;4.93;2.35;;;;;;;16.43;81.93;101871.03;5074100;28;20028;-71
2022/07/07 04:03:55;;;;;;;3.90;2.35;;;;;;;16.39;82.69;101861.28;5088205;28;20027;-70
2022/07/07 04:06:21;;;;;;;3.30;2.30;;;;;;;16.40;82.16;101862.16;5090224;28;20114;-71
2022/07/07 04:08:46;;;;;;;3.13;2.42;;;;;;;16.42;81.78;101860.19;5083652;28;20040;-70
2022/07/07 04:11:12;;;;;;;2.58;2.38;;;;;;;16.39;82.55;101852.19;5070434;28;20021;-71
2022/07/07 04:13:37;;;;;;;6.40;2.42;;;;;;;16.38;82.44;101845.81;5069058;28;20407;-71
2022/07/07 04:16:02;;;;;;;6.15;2.80;;;;;;;16.38;82.49;101839.44;5078673;28;20028;-70
2022/07/07 04:18:28;;;;;;;4.20;2.80;;;;;;;16.39;82.95;101847.56;5070292;28;20029;-71
2022/07/07 04:20:53;;;;;;;7.35;2.40;;;;;;;16.34;83.48;101844.31;5069516;28;20464;-72
2022/07/07 04:23:18;;;;;;;3.55;2.30;;;;;;;16.35;81.99;101836.94;5069176;28;20056;-69
2022/07/07 04:25:44;;;;;;;3.00;2.70;;;;;;;16.36;82.28;101841.44;5063501;28;20043;-70
2022/07/07 04:28:09;;;;;;;7.18;2.72;;;;;;;16.35;83.33;101839.69;5068146;28;20062;-71
2022/07/07 04:30:34;;;;;;;5.97;2.75;;;;;;;16.36;83.11;101847.78;5063982;28;20102;-71
2022/07/07 04:33:00;;;;;;;4.90;2.78;;;;;;;16.37;82.58;101844.06;5080316;28;20032;-71
2022/07/07 04:35:26;;;;;;;4.70;2.90;;;;;;;16.38;81.20;101848.56;5089904;28;20052;-71
2022/07/07 04:37:51;;;;;;;7.38;2.80;;;;;;;16.38;84.36;101864.16;5089880;28;20056;-70
2022/07/07 04:40:17;;;;;;;3.60;3.03;;;;;;;16.37;83.61;101859.66;5076530;28;20047;-70
2022/07/07 04:42:42;;;;;;;6.38;3.20;;;;;;;16.36;84.24;101868.88;5069550;28;20087;-70
2022/07/07 04:45:08;;;;;;;3.90;2.80;;;;;;;16.28;85.37;101881.38;5080251;28;20471;-69
2022/07/07 04:47:41;;;;;;;7.28;3.10;;;;;;;16.22;84.56;101887.34;5069425;28;20471;-70
2022/07/07 04:50:10;;;;;;;;;;;;;;;16.28;82.54;101883.25;5076332;28;20028;-70
2022/07/07 04:52:36;;;;;;;4.63;2.08;;;;;;;16.22;84.84;101887.34;5073846;28;19916;-70
2022/07/07 04:55:02;;;;;;;4.72;1.73;;;;;;;16.21;84.70;101893.84;5068004;28;20475;-71
2022/07/07 04:57:27;;;;;;;4.65;1.88;;;;;;;16.17;84.43;101891.47;5067154;28;20040;-70
2022/07/07 04:59:53;;;;;;;4.10;1.77;;;;;;;16.16;83.56;101886.97;5078409;28;20134;-70
2022/07/07 05:02:18;;;;;;;6.13;1.38;;;;;;;16.19;84.54;101895.84;5073797;28;20050;-71
2022/07/07 05:04:43;;;;;;;2.05;1.50;;;;;;;16.20;83.02;101888.47;5087920;28;20020;-71
2022/07/07 05:07:09;;;;;;;4.07;1.30;;;;;;;16.23;83.96;101899.22;5073558;28;20048;-71
2022/07/07 05:09:34;;;;;;;2.63;1.48;;;;;;;16.26;83.79;101907.19;5068186;28;20051;-70
2022/07/07 05:12:01;;;;;;;3.47;1.55;;;;;;;16.21;83.93;101896.59;5069142;28;20037;-71
2022/07/07 05:14:26;;;;;;;1.63;1.10;;;;;;;16.18;83.48;101896.84;5066689;28;20052;-72
2022/07/07 05:16:52;;;;;;;4.18;1.30;;;;;;;16.19;84.12;101917.81;5068661;28;20028;-70
2022/07/07 05:19:17;;;;;;;4.63;1.30;;;;;;;16.20;84.74;101919.56;5068938;28;20036;-71
2022/07/07 05:21:42;;;;;;;3.22;1.08;;;;;;;16.22;85.27;101914.81;5068222;28;20032;-71
2022/07/07 05:24:08;;;;;;;1.25;1.00;;;;;;;16.26;84.47;101930.03;5068637;28;20043;-71
2022/07/07 05:26:33;;;;;;;4.05;1.20;;;;;;;16.36;84.57;101921.94;5084700;28;20044;-72
2022/07/07 05:28:59;;;;;;;3.03;1.10;;;;;;;16.50;83.57;101924.47;5074359;28;20081;-71
2022/07/07 05:31:24;;;;;;;3.58;1.15;;;;;;;16.62;83.90;101930.84;5075094;28;20066;-71
2022/07/07 05:33:49;;;;;;;4.63;1.30;;;;;;;16.74;82.14;101921.66;5087865;28;20032;-71
2022/07/07 05:36:15;;;;;;;3.58;1.05;;;;;;;16.82;81.23;101916.38;5088994;28;20064;-72
2022/07/07 05:38:40;;;;;;;1.92;1.20;;;;;;;16.92;81.60;101926.63;5081142;28;20046;-72
2022/07/07 05:41:05;;;;;;;6.15;1.50;;;;;;;17.01;81.47;101921.25;5068270;28;20034;-71
2022/07/07 05:43:31;;;;;;;3.03;1.02;;;;;;;17.07;81.71;101934.50;5068320;28;20101;-71
2022/07/07 05:45:56;;;;;;;4.78;1.33;;;;;;;17.18;80.99;101938.25;5077081;28;20536;-70
2022/07/07 05:48:22;;;;;;;5.90;1.05;;;;;;;17.15;81.23;101949.47;5068728;28;20476;-72
2022/07/07 05:50:47;;;;;;;4.30;1.50;;;;;;;17.11;80.43;101954.34;5067459;28;20032;-71
2022/07/07 05:53:12;;;;;;;4.97;1.25;;;;;;;17.07;80.06;101951.00;5088596;28;20055;-71
2022/07/07 05:55:38;;;;;;;3.45;1.35;;;;;;;17.06;80.25;101954.72;5085733;28;20032;-71
2022/07/07 05:58:03;;;;;;;8.35;1.38;;;;;;;16.91;80.17;101964.25;5087148;28;20439;-68
2022/07/07 06:00:29;;;;;;;5.03;1.33;;;;;;;16.77;81.01;101967.25;5082170;28;20032;-69
2022/07/07 06:02:54;;;;;;;4.95;1.52;;;;;;;16.62;81.28;101972.06;5077607;28;20475;-70
2022/07/07 06:05:20;;;;;;;5.40;1.45;;;;;;;16.50;82.49;101981.28;5072458;28;20127;-70
2022/07/07 06:07:46;;;;;;;3.13;1.27;;;;;;;16.35;82.22;101983.38;5068391;28;20040;-70
2022/07/07 06:10:11;;;;;;;4.40;1.00;;;;;;;16.38;82.92;101988.63;5067618;28;20498;-70
2022/07/07 06:12:38;;;;;;;5.18;1.15;;;;;;;16.46;82.36;101982.50;5068090;28;20043;-70
2022/07/07 06:15:04;;;;;;;8.30;1.30;;;;;;;16.55;81.90;101987.28;5065423;28;20037;-69
2022/07/07 06:17:30;;;;;;;4.82;1.20;;;;;;;16.63;82.38;101994.94;5080302;28;20036;-71
2022/07/07 06:19:55;;;;;;;6.22;1.60;;;;;;;16.70;82.29;102002.56;5088568;28;20139;-71
2022/07/07 06:22:21;;;;;;;6.47;1.67;;;;;;;16.84;81.42;102009.75;5088301;28;20031;-70
2022/07/07 06:24:47;;;;;;;3.58;1.10;;;;;;;16.91;79.48;102010.09;5079603;28;20097;-70
2022/07/07 06:27:13;;;;;;;7.15;1.45;;;;;;;16.89;78.89;102017.63;5068429;28;20044;-69
2022/07/07 06:29:38;;;;;;;6.47;1.60;;;;;;;16.92;80.73;102025.59;5047956;28;20043;-70
2022/07/07 06:32:04;;;;;;;6.90;1.60;;;;;;;16.93;79.78;102020.00;5070056;28;20029;-69
2022/07/07 06:34:29;;;;;;;9.07;1.60;;;;;;;17.04;78.75;102024.63;5079372;28;20233;-70
2022/07/07 06:36:55;;;;;;;8.77;2.03;;;;;;;17.16;78.69;102030.97;5066438;28;20040;-69
2022/07/07 06:39:20;;;;;;;7.72;1.55;;;;;;;17.18;76.81;102021.63;5067499;28;20161;-71
2022/07/07 06:41:46;;;;;;;9.95;1.60;;;;;;;17.29;76.25;102029.84;5080578;28;20036;-70
2022/07/07 06:44:12;;;;;;;10.85;2.10;;;;;;;17.40;77.35;102031.75;5074567;28;20041;-70
2022/07/07 06:46:39;;;;;;;6.63;1.33;;;;;;;17.50;77.17;102053.88;5067616;28;20123;-71
2022/07/07 06:49:05;;;;;;;9.02;1.67;;;;;;;17.24;75.48;102067.00;5067726;28;20038;-71
2022/07/07 06:51:30;;;;;;;5.78;1.13;;;;;;;17.01;76.35;102050.47;5070302;28;20032;-70
2022/07/07 06:53:56;;;;;;;4.78;0.93;;;;;;;16.74;76.26;102071.91;5070578;28;20082;-70
2022/07/07 06:56:21;;;;;;;3.08;0.93;;;;;;;16.63;76.88;102071.88;5071365;28;20039;-70
2022/07/07 06:58:46;;;;;;;3.17;0.98;;;;;;;16.55;76.71;102070.59;5070656;28;20036;-70
2022/07/07 07:01:12;;;;;;;5.82;1.40;;;;;;;16.48;78.42;102065.69;5070901;28;20050;-71
2022/07/07 07:03:37;;;;;;;8.65;0.98;;;;;;;16.42;77.76;102058.81;5086887;28;20036;-71
2022/07/07 07:06:03;;;;;;;5.18;1.35;;;;;;;16.48;77.59;102066.56;5087024;28;20052;-71
2022/07/07 07:08:28;;;;;;;6.05;1.52;;;;;;;16.56;77.59;102044.00;5069306;28;20032;-71
2022/07/07 07:10:53;;;;;;;6.70;1.30;;;;;;;16.58;77.61;102056.59;5084850;28;20035;-70
2022/07/07 07:13:19;;;;;;;6.35;0.90;;;;;;;16.52;76.69;102065.34;5069780;28;20663;-70
2022/07/07 07:15:45;;;;;;;4.40;1.33;;;;;;;16.38;76.74;102065.53;5068896;28;20111;-70
2022/07/07 07:18:11;;;;;;;5.78;1.20;;;;;;;16.35;78.22;102049.28;5088660;28;20482;-71
2022/07/07 07:20:37;;;;;;;4.93;0.90;;;;;;;16.39;78.02;102059.03;5091256;28;20124;-70
2022/07/07 07:23:02;;;;;;;3.10;1.15;;;;;;;16.48;77.62;102062.94;5075309;28;20399;-71
2022/07/07 07:25:28;;;;;;;4.25;0.95;;;;;;;16.54;76.20;102070.69;5070278;28;20107;-71
2022/07/07 07:27:53;;;;;;;7.68;1.25;;;;;;;16.59;75.62;102083.09;5069381;28;20032;-71
2022/07/07 07:30:18;;;;;;;9.70;1.38;;;;;;;16.72;75.08;102082.16;5069487;28;20073;-71
2022/07/07 07:32:44;;;;;;;4.78;1.35;;;;;;;16.80;75.00;102077.81;5090055;28;20047;-70
2022/07/07 07:35:10;;;;;;;3.88;0.85;;;;;;;17.10;73.96;102087.34;5070695;28;20024;-70
2022/07/07 07:37:38;;;;;;;4.63;1.35;;;;;;;17.36;73.30;102089.91;5070707;28;20085;-70
2022/07/07 07:40:06;;;;;;;4.45;1.17;;;;;;;17.59;72.82;102086.13;5069981;28;20343;-68
2022/07/07 07:42:31;;;;;;;6.25;1.15;;;;;;;17.67;72.45;102091.84;5086507;28;20051;-71
2022/07/07 07:45:12;;;;;;;7.32;1.20;;;;;;;17.75;73.60;102086.63;5068857;28;20021;-70
2022/07/07 07:47:43;;;;;;;4.05;0.90;;;;;;;17.78;70.63;102091.91;5070401;28;20089;-70
2022/07/07 07:50:12;;;;;;;3.67;0.70;;;;;;;17.85;71.50;102095.00;5069988;28;20048;-71
2022/07/07 07:52:39;;;;;;;4.70;1.30;;;;;;;18.00;71.68;102098.34;5070102;28;20036;-71
2022/07/07 07:55:06;;;;;;;7.18;1.33;;;;;;;18.08;69.64;102106.84;5069739;28;20071;-69
2022/07/07 07:57:31;;;;;;;4.05;1.00;;;;;;;17.97;69.20;102106.88;5070566;28;20028;-71
2022/07/07 07:59:56;;;;;;;6.40;1.40;;;;;;;17.83;70.60;102113.53;5068268;28;20560;-69
2022/07/07 08:02:22;;;;;;;5.88;1.27;;;;;;;17.55;73.12;102121.28;5074619;28;20046;-70
2022/07/07 08:04:47;;;;;;;2.40;0.80;;;;;;;17.19;73.13;102105.88;5090291;28;20119;-71
2022/07/07 08:07:13;;;;;;;3.13;0.80;;;;;;;17.02;74.26;102109.09;5073399;28;20075;-71
2022/07/07 08:09:38;;;;;;;3.20;1.05;;;;;;;17.06;75.55;102110.59;5082164;28;20502;-71
2022/07/07 08:12:05;;;;;;;6.43;0.85;;;;;;;17.15;74.92;102112.63;5069807;28;20559;-70
2022/07/07 08:14:30;;;;;;;3.53;1.20;;;;;;;17.25;72.61;102116.41;5069233;28;20121;-70
2022/07/07 08:16:56;;;;;;;3.70;1.58;;;;;;;17.22;73.08;102126.75;5069363;28;20048;-71
2022/07/07 08:19:22;;;;;;;3.63;0.98;;;;;;;17.23;74.41;102128.50;5069803;28;20116;-70
2022/07/07 08:21:47;;;;;;;1.83;0.98;;;;;;;17.36;74.41;102129.28;5069358;28;20380;-71
2022/07/07 08:24:13;;;;;;;4.97;1.40;;;;;;;17.36;72.80;102134.78;5067796;28;20071;-71
2022/07/07 08:26:39;;;;;;;6.00;1.48;;;;;;;17.43;73.85;102136.03;5069730;28;20040;-71
2022/07/07 08:29:05;;;;;;;2.97;1.42;;;;;;;17.54;74.04;102135.16;5068197;28;20098;-71
2022/07/07 08:31:31;;;;;;;6.15;1.30;;;;;;;17.62;74.16;102137.28;5069192;28;20055;-70
2022/07/07 08:33:56;;;;;;;5.35;0.70;;;;;;;17.58;71.16;102140.31;5087541;28;20101;-71
2022/07/07 08:36:21;;;;;;;2.15;0.75;;;;;;;17.64;72.11;102136.16;5089611;28;20069;-70
2022/07/07 08:38:47;;;;;;;6.00;0.77;;;;;;;17.60;70.23;102146.53;5076726;28;20372;-70
2022/07/07 08:41:13;;;;;;;3.13;0.70;;;;;;;17.63;71.06;102139.06;5069002;28;20024;-70
2022/07/07 08:43:39;;;;;;;2.50;1.00;;;;;;;17.76;71.70;102137.06;5082315;28;20040;-71
2022/07/07 08:46:04;;;;;;;2.75;0.93;;;;;;;18.02;71.17;102134.91;5068749;28;20487;-71
2022/07/07 08:48:29;;;;;;;4.53;0.85;;;;;;;18.30;69.37;102138.97;5069640;28;20419;-70
2022/07/07 08:50:55;;;;;;;1.60;0.80;;;;;;;18.90;67.78;102139.38;5068921;28;20066;-71
2022/07/07 08:53:22;;;;;;;5.57;0.90;;;;;;;19.63;68.40;102130.09;5068747;28;20040;-70
2022/07/07 08:55:47;;;;;;;3.97;0.80;;;;;;;20.01;66.38;102145.97;5068640;28;20029;-70
2022/07/07 08:58:15;;;;;;;4.38;1.05;;;;;;;19.85;65.32;102149.25;5066636;28;20028;-70
2022/07/07 09:00:40;;;;;;;5.45;0.90;;;;;;;19.66;65.53;102142.78;5068437;28;20043;-71
2022/07/07 09:03:07;;;;;;;3.70;1.30;;;;;;;19.33;66.52;102159.41;5080118;28;20016;-70
2022/07/07 09:05:39;;;;;;;3.20;0.85;;;;;;;19.05;66.63;102165.63;5089535;28;20063;-72
2022/07/07 09:08:25;;;;;;;6.20;1.52;;;;;;;18.64;68.11;102163.66;5084220;28;20059;-71
2022/07/07 09:10:51;;;;;;;3.80;0.93;;;;;;;18.50;68.38;102167.59;5068354;28;20452;-70
2022/07/07 09:13:31;;;;;;;4.18;0.85;;;;;;;18.44;68.38;102171.75;5067235;28;20025;-70
2022/07/07 09:16:02;;;;;;;7.10;1.20;;;;;;;18.28;66.55;102166.66;5068447;28;20036;-71
2022/07/07 09:18:31;;;;;;;10.38;1.40;;;;;;;18.27;68.57;102169.53;5087741;28;20189;-71
2022/07/07 09:20:57;;;;;;;4.55;1.00;;;;;;;18.36;67.37;102174.25;5070757;28;20039;-71
2022/07/07 09:23:23;;;;;;;4.85;0.95;;;;;;;18.42;66.62;102172.88;5068407;28;20407;-71
2022/07/07 09:25:48;;;;;;;6.10;1.17;;;;;;;18.44;66.84;102179.13;5068390;28;20452;-71
2022/07/07 09:28:14;;;;;;;6.00;1.02;;;;;;;18.51;67.15;102175.75;5067705;28;20041;-72
2022/07/07 09:30:43;;;;;;;4.72;1.05;;;;;;;18.50;67.46;102193.25;5066834;28;20048;-71
2022/07/07 09:33:13;;;;;;;3.60;0.80;;;;;;;18.35;67.15;102184.41;5080235;28;20036;-71
2022/07/07 09:38:28;;;;;;;3.95;1.00;;;;;;;18.63;68.12;102190.34;5088812;28;20093;-71
2022/07/07 09:41:08;;;;;;;5.32;0.90;;;;;;;18.98;68.13;102195.63;5072426;28;20596;-71
2022/07/07 09:43:52;;;;;;;2.05;0.70;;;;;;;19.02;66.46;102201.75;5067245;28;20488;-69
2022/07/07 09:46:25;;;;;;;3.42;0.88;;;;;;;18.86;64.83;102210.47;5067051;28;20493;-71
2022/07/07 09:48:52;;;;;;;5.20;0.88;;;;;;;18.77;65.76;102219.53;5068572;28;20068;-72
2022/07/07 09:51:20;;;;;;;4.82;1.10;;;;;;;18.63;65.63;102223.44;5068454;28;20063;-72
2022/07/07 09:54:10;;;;;;;4.13;0.90;;;;;;;18.46;66.56;102233.09;5066942;28;20048;-71
2022/07/07 09:56:48;;;;;;;7.15;1.33;;;;;;;18.30;66.99;102232.66;5067086;28;20040;-70
2022/07/07 09:59:16;;;;;;;7.35;1.10;;;;;;;18.12;68.50;102234.16;5067309;28;20037;-71
2022/07/07 10:01:44;;;;;;;5.15;1.52;;;;;;;18.15;68.42;102232.03;5068103;28;20025;-71
2022/07/07 10:04:14;;;;;;;2.80;0.82;;;;;;;18.42;69.26;102234.41;5088333;28;20039;-71
2022/07/07 10:06:42;;;;;;;5.80;0.90;;;;;;;18.86;69.78;102233.41;5068998;28;20381;-72
2022/07/07 10:09:18;;;;;;;4.80;1.00;;;;;;;19.34;69.10;102241.19;5067135;28;20029;-70
2022/07/07 10:11:50;;;;;;;4.25;1.10;;;;;;;19.61;67.71;102243.44;5068485;28;20483;-71
2022/07/07 10:14:33;;;;;;;4.40;1.02;;;;;;;19.66;67.94;102242.19;5067757;28;20424;-70
2022/07/07 10:17:00;;;;;;;3.45;0.82;;;;;;;19.45;68.33;102243.03;5066981;28;20532;-71
2022/07/07 10:19:26;;;;;;;5.00;1.30;;;;;;;19.03;68.57;102248.53;5068519;28;20340;-71
2022/07/07 10:21:54;;;;;;;5.35;1.00;;;;;;;18.82;70.19;102256.72;5067860;28;20020;-70
2022/07/07 10:24:22;;;;;;;4.05;0.88;;;;;;;18.51;71.22;102269.47;5067998;28;20033;-71
2022/07/07 10:27:02;;;;;;;5.03;1.00;;;;;;;18.26;71.17;102265.09;5072082;28;20071;-71
2022/07/07 10:29:49;;;;;;;5.10;1.25;;;;;;;18.16;72.24;102269.59;5071151;28;20051;-71
2022/07/07 10:32:17;;;;;;;4.53;1.25;;;;;;;18.19;74.48;102276.75;5082689;28;20490;-71
2022/07/07 10:34:55;;;;;;;3.53;1.00;;;;;;;18.51;72.65;102280.47;5092134;28;20040;-70
2022/07/07 10:37:21;;;;;;;4.97;0.80;;;;;;;18.91;73.55;102281.78;5088002;28;20126;-71
2022/07/07 10:39:50;;;;;;;5.28;0.85;;;;;;;19.19;71.04;102275.66;5071317;28;20028;-70
2022/07/07 10:42:15;;;;;;;4.03;1.27;;;;;;;19.46;71.77;102277.03;5071745;28;20032;-71
2022/07/07 10:44:44;;;;;;;5.13;0.95;;;;;;;19.54;69.74;102280.00;5070124;28;20098;-71
2022/07/07 10:47:13;;;;;;;2.90;0.80;;;;;;;19.38;68.84;102280.44;5071035;28;20028;-72
2022/07/07 10:49:47;;;;;;;2.40;1.00;;;;;;;19.19;68.74;102283.94;5070818;28;20124;-72
2022/07/07 10:52:18;;;;;;;2.33;1.00;;;;;;;18.89;69.07;102286.56;5071751;28;20150;-71
2022/07/07 10:54:48;;;;;;;6.47;1.60;;;;;;;18.57;70.53;102296.50;5070653;28;20047;-71
2022/07/07 10:57:18;;;;;;;3.45;0.85;;;;;;;18.47;71.40;102306.53;5071616;28;20051;-71
2022/07/07 10:59:59;;;;;;;6.10;1.13;;;;;;;18.38;71.67;102299.03;5083791;28;20051;-71
2022/07/07 11:02:31;;;;;;;3.05;1.10;;;;;;;18.40;73.22;102316.31;5091976;28;20128;-71
2022/07/07 11:04:59;;;;;;;4.88;1.15;;;;;;;18.59;72.04;102318.41;5091626;28;20146;-71
2022/07/07 11:07:25;;;;;;;2.90;0.80;;;;;;;18.83;71.41;102318.28;5091776;28;20059;-71
2022/07/07 11:10:07;;;;;;;3.60;1.02;;;;;;;18.99;70.14;102309.59;5083189;28;20025;-71
2022/07/07 11:12:53;;;;;;;3.15;1.15;;;;;;;19.11;68.51;102314.06;5071813;28;20032;-71
2022/07/07 11:15:18;;;;;;;3.92;1.40;;;;;;;19.36;69.31;102316.47;5069663;28;20458;-71
2022/07/07 11:17:53;;;;;;;2.92;1.27;;;;;;;19.56;68.02;102320.25;5071212;28;20119;-72
2022/07/07 11:20:20;;;;;;;5.38;1.52;;;;;;;19.32;68.13;102326.03;5084680;28;20067;-71
2022/07/07 11:22:48;;;;;;;6.38;1.58;;;;;;;18.96;69.71;102341.06;5091240;28;20127;-72
2022/07/07 11:25:17;;;;;;;2.55;1.30;;;;;;;18.73;69.75;102351.25;5080925;28;20033;-72